sensor_id;sensor_type;location;lat;lon;timestamp;P1;durP1;ratioP1;P2;durP2;ratioP2
77573;SDS011;66710;48.868;9.080;2024-02-26T00:01:25;6.47;;;2.70;;
77573;SDS011;66710;48.868;9.080;2024-02-26T00:03:50;5.88;;;2.80;;
77573;SDS011;66710;48.868;9.080;2024-02-26T00:06:15;6.93;;;2.97;;
77573;SDS011;66710;48.868;9.080;2024-02-26T00:08:41;4.40;;;2.75;;
77573;SDS011;66710;48.868;9.080;2024-02-26T00:11:06;5.47;;;2.92;;
77573;SDS011;66710;48.868;9.080;2024-02-26T00:13:31;5.15;;;2.58;;
77573;SDS011;66710;48.868;9.080;2024-02-26T00:15:57;5.68;;;2.83;;
77573;SDS011;66710;48.868;9.080;2024-02-26T00:18:22;5.03;;;2.72;;
77573;SDS011;66710;48.868;9.080;2024-02-26T00:20:47;5.47;;;2.83;;
77573;SDS011;66710;48.868;9.080;2024-02-26T00:23:14;6.57;;;2.80;;
77573;SDS011;66710;48.868;9.080;2024-02-26T00:25:40;7.00;;;3.20;;
77573;SDS011;66710;48.868;9.080;2024-02-26T00:28:07;5.70;;;2.95;;
77573;SDS011;66710;48.868;9.080;2024-02-26T00:30:33;5.88;;;2.90;;
77573;SDS011;66710;48.868;9.080;2024-02-26T00:32:58;5.40;;;3.00;;
77573;SDS011;66710;48.868;9.080;2024-02-26T00:35:23;4.93;;;2.75;;
77573;SDS011;66710;48.868;9.080;2024-02-26T00:37:48;5.10;;;2.70;;
77573;SDS011;66710;48.868;9.080;2024-02-26T00:40:14;5.18;;;2.80;;
77573;SDS011;66710;48.868;9.080;2024-02-26T00:42:39;5.25;;;2.90;;
77573;SDS011;66710;48.868;9.080;2024-02-26T00:45:10;5.55;;;3.17;;
77573;SDS011;66710;48.868;9.080;2024-02-26T00:47:35;6.22;;;3.05;;
77573;SDS011;66710;48.868;9.080;2024-02-26T00:50:00;6.43;;;3.17;;
77573;SDS011;66710;48.868;9.080;2024-02-26T00:52:26;5.18;;;2.60;;
77573;SDS011;66710;48.868;9.080;2024-02-26T00:54:51;4.18;;;2.00;;
77573;SDS011;66710;48.868;9.080;2024-02-26T00:57:16;5.10;;;2.67;;
77573;SDS011;66710;48.868;9.080;2024-02-26T00:59:41;5.10;;;2.90;;
77573;SDS011;66710;48.868;9.080;2024-02-26T01:02:07;5.05;;;2.90;;
77573;SDS011;66710;48.868;9.080;2024-02-26T01:04:32;4.85;;;2.63;;
77573;SDS011;66710;48.868;9.080;2024-02-26T01:06:59;4.65;;;2.72;;
77573;SDS011;66710;48.868;9.080;2024-02-26T01:09:24;6.18;;;3.10;;
77573;SDS011;66710;48.868;9.080;2024-02-26T01:11:50;5.03;;;2.97;;
77573;SDS011;66710;48.868;9.080;2024-02-26T01:14:15;5.30;;;2.92;;
77573;SDS011;66710;48.868;9.080;2024-02-26T01:16:40;4.72;;;2.70;;
77573;SDS011;66710;48.868;9.080;2024-02-26T01:19:06;5.13;;;2.80;;
77573;SDS011;66710;48.868;9.080;2024-02-26T01:21:31;6.22;;;2.85;;
77573;SDS011;66710;48.868;9.080;2024-02-26T01:23:57;5.90;;;3.20;;
77573;SDS011;66710;48.868;9.080;2024-02-26T01:26:22;6.43;;;3.33;;
77573;SDS011;66710;48.868;9.080;2024-02-26T01:28:48;6.35;;;3.42;;
77573;SDS011;66710;48.868;9.080;2024-02-26T01:31:13;5.50;;;3.30;;
77573;SDS011;66710;48.868;9.080;2024-02-26T01:33:38;10.40;;;3.10;;
77573;SDS011;66710;48.868;9.080;2024-02-26T01:36:04;5.50;;;2.97;;
77573;SDS011;66710;48.868;9.080;2024-02-26T01:38:29;5.75;;;3.00;;
77573;SDS011;66710;48.868;9.080;2024-02-26T01:40:54;5.63;;;3.05;;
77573;SDS011;66710;48.868;9.080;2024-02-26T01:43:20;5.15;;;2.75;;
77573;SDS011;66710;48.868;9.080;2024-02-26T01:45:45;5.20;;;2.67;;
77573;SDS011;66710;48.868;9.080;2024-02-26T01:48:10;6.30;;;2.97;;
77573;SDS011;66710;48.868;9.080;2024-02-26T01:50:35;5.90;;;2.50;;
77573;SDS011;66710;48.868;9.080;2024-02-26T01:53:03;5.55;;;2.90;;
77573;SDS011;66710;48.868;9.080;2024-02-26T01:55:29;5.60;;;2.95;;
77573;SDS011;66710;48.868;9.080;2024-02-26T01:57:54;5.13;;;2.70;;
77573;SDS011;66710;48.868;9.080;2024-02-26T02:00:20;4.93;;;2.72;;
77573;SDS011;66710;48.868;9.080;2024-02-26T02:02:46;4.50;;;2.55;;
77573;SDS011;66710;48.868;9.080;2024-02-26T02:05:13;5.15;;;2.70;;
77573;SDS011;66710;48.868;9.080;2024-02-26T02:07:41;4.93;;;2.50;;
77573;SDS011;66710;48.868;9.080;2024-02-26T02:10:06;4.57;;;2.50;;
77573;SDS011;66710;48.868;9.080;2024-02-26T02:12:32;5.05;;;2.83;;
77573;SDS011;66710;48.868;9.080;2024-02-26T02:14:59;5.28;;;2.78;;
77573;SDS011;66710;48.868;9.080;2024-02-26T02:17:25;4.60;;;2.58;;
77573;SDS011;66710;48.868;9.080;2024-02-26T02:19:52;5.35;;;3.00;;
77573;SDS011;66710;48.868;9.080;2024-02-26T02:22:17;5.93;;;2.85;;
77573;SDS011;66710;48.868;9.080;2024-02-26T02:24:43;5.35;;;3.00;;
77573;SDS011;66710;48.868;9.080;2024-02-26T02:27:08;5.15;;;2.80;;
77573;SDS011;66710;48.868;9.080;2024-02-26T02:29:33;5.55;;;2.67;;
77573;SDS011;66710;48.868;9.080;2024-02-26T02:31:59;6.25;;;3.28;;
77573;SDS011;66710;48.868;9.080;2024-02-26T02:34:26;5.78;;;3.03;;
77573;SDS011;66710;48.868;9.080;2024-02-26T02:36:52;5.93;;;3.00;;
77573;SDS011;66710;48.868;9.080;2024-02-26T02:39:18;4.18;;;2.40;;
77573;SDS011;66710;48.868;9.080;2024-02-26T02:41:43;6.43;;;2.80;;
77573;SDS011;66710;48.868;9.080;2024-02-26T02:44:09;4.50;;;2.60;;
77573;SDS011;66710;48.868;9.080;2024-02-26T02:46:34;5.10;;;2.80;;
77573;SDS011;66710;48.868;9.080;2024-02-26T02:49:00;5.15;;;2.60;;
77573;SDS011;66710;48.868;9.080;2024-02-26T02:51:25;4.38;;;2.20;;
77573;SDS011;66710;48.868;9.080;2024-02-26T02:53:51;3.70;;;2.17;;
77573;SDS011;66710;48.868;9.080;2024-02-26T02:56:16;4.45;;;2.53;;
77573;SDS011;66710;48.868;9.080;2024-02-26T02:58:41;6.18;;;2.28;;
77573;SDS011;66710;48.868;9.080;2024-02-26T03:01:07;4.18;;;2.22;;
77573;SDS011;66710;48.868;9.080;2024-02-26T03:03:32;3.72;;;2.00;;
77573;SDS011;66710;48.868;9.080;2024-02-26T03:05:57;4.80;;;2.50;;
77573;SDS011;66710;48.868;9.080;2024-02-26T03:08:23;5.15;;;3.08;;
77573;SDS011;66710;48.868;9.080;2024-02-26T03:10:50;5.43;;;2.70;;
77573;SDS011;66710;48.868;9.080;2024-02-26T03:13:16;6.20;;;2.72;;
77573;SDS011;66710;48.868;9.080;2024-02-26T03:15:41;5.07;;;2.80;;
77573;SDS011;66710;48.868;9.080;2024-02-26T03:18:06;3.90;;;2.65;;
77573;SDS011;66710;48.868;9.080;2024-02-26T03:20:31;5.47;;;2.65;;
77573;SDS011;66710;48.868;9.080;2024-02-26T03:22:57;4.28;;;2.40;;
77573;SDS011;66710;48.868;9.080;2024-02-26T03:25:22;5.60;;;2.38;;
77573;SDS011;66710;48.868;9.080;2024-02-26T03:27:47;3.65;;;2.15;;
77573;SDS011;66710;48.868;9.080;2024-02-26T03:30:12;3.85;;;1.80;;
77573;SDS011;66710;48.868;9.080;2024-02-26T03:32:38;3.42;;;1.95;;
77573;SDS011;66710;48.868;9.080;2024-02-26T03:35:03;4.00;;;2.25;;
77573;SDS011;66710;48.868;9.080;2024-02-26T03:37:29;4.65;;;2.50;;
77573;SDS011;66710;48.868;9.080;2024-02-26T03:39:54;3.63;;;1.70;;
77573;SDS011;66710;48.868;9.080;2024-02-26T03:42:19;3.72;;;2.00;;
77573;SDS011;66710;48.868;9.080;2024-02-26T03:44:44;4.20;;;2.25;;
77573;SDS011;66710;48.868;9.080;2024-02-26T03:47:10;3.97;;;2.10;;
77573;SDS011;66710;48.868;9.080;2024-02-26T03:49:35;3.45;;;2.00;;
77573;SDS011;66710;48.868;9.080;2024-02-26T03:52:00;3.15;;;1.70;;
77573;SDS011;66710;48.868;9.080;2024-02-26T03:54:25;2.13;;;1.38;;
77573;SDS011;66710;48.868;9.080;2024-02-26T03:56:51;2.83;;;1.50;;
77573;SDS011;66710;48.868;9.080;2024-02-26T03:59:16;2.78;;;1.38;;
77573;SDS011;66710;48.868;9.080;2024-02-26T04:01:48;2.55;;;1.50;;
77573;SDS011;66710;48.868;9.080;2024-02-26T04:04:13;2.25;;;1.30;;
77573;SDS011;66710;48.868;9.080;2024-02-26T04:06:38;2.47;;;1.27;;
77573;SDS011;66710;48.868;9.080;2024-02-26T04:09:04;2.70;;;1.30;;
77573;SDS011;66710;48.868;9.080;2024-02-26T04:11:29;2.20;;;1.30;;
77573;SDS011;66710;48.868;9.080;2024-02-26T04:13:54;3.83;;;1.88;;
77573;SDS011;66710;48.868;9.080;2024-02-26T04:16:20;3.22;;;1.80;;
77573;SDS011;66710;48.868;9.080;2024-02-26T04:18:45;3.20;;;1.60;;
77573;SDS011;66710;48.868;9.080;2024-02-26T04:21:10;2.88;;;1.40;;
77573;SDS011;66710;48.868;9.080;2024-02-26T04:23:36;4.18;;;2.00;;
77573;SDS011;66710;48.868;9.080;2024-02-26T04:26:01;3.67;;;2.08;;
77573;SDS011;66710;48.868;9.080;2024-02-26T04:28:26;3.97;;;2.00;;
77573;SDS011;66710;48.868;9.080;2024-02-26T04:30:54;3.17;;;1.98;;
77573;SDS011;66710;48.868;9.080;2024-02-26T04:33:19;3.53;;;2.03;;
77573;SDS011;66710;48.868;9.080;2024-02-26T04:35:45;4.57;;;2.38;;
77573;SDS011;66710;48.868;9.080;2024-02-26T04:38:10;4.40;;;2.30;;
77573;SDS011;66710;48.868;9.080;2024-02-26T04:40:35;4.38;;;2.28;;
77573;SDS011;66710;48.868;9.080;2024-02-26T04:43:00;4.00;;;2.30;;
77573;SDS011;66710;48.868;9.080;2024-02-26T04:45:26;4.35;;;2.28;;
77573;SDS011;66710;48.868;9.080;2024-02-26T04:47:51;3.60;;;1.90;;
77573;SDS011;66710;48.868;9.080;2024-02-26T04:50:16;3.63;;;1.95;;
77573;SDS011;66710;48.868;9.080;2024-02-26T04:52:42;3.22;;;1.60;;
77573;SDS011;66710;48.868;9.080;2024-02-26T04:55:07;3.63;;;1.75;;
77573;SDS011;66710;48.868;9.080;2024-02-26T04:57:33;3.35;;;1.75;;
77573;SDS011;66710;48.868;9.080;2024-02-26T04:59:58;3.30;;;1.90;;
77573;SDS011;66710;48.868;9.080;2024-02-26T05:02:23;3.20;;;1.60;;
77573;SDS011;66710;48.868;9.080;2024-02-26T05:04:49;3.70;;;1.95;;
77573;SDS011;66710;48.868;9.080;2024-02-26T05:07:14;4.32;;;2.20;;
77573;SDS011;66710;48.868;9.080;2024-02-26T05:09:42;3.42;;;1.80;;
77573;SDS011;66710;48.868;9.080;2024-02-26T05:12:08;4.55;;;1.90;;
77573;SDS011;66710;48.868;9.080;2024-02-26T05:14:34;4.22;;;1.83;;
77573;SDS011;66710;48.868;9.080;2024-02-26T05:16:59;4.47;;;2.40;;
77573;SDS011;66710;48.868;9.080;2024-02-26T05:19:25;3.30;;;1.85;;
77573;SDS011;66710;48.868;9.080;2024-02-26T05:21:50;3.03;;;1.90;;
77573;SDS011;66710;48.868;9.080;2024-02-26T05:24:16;3.85;;;2.05;;
77573;SDS011;66710;48.868;9.080;2024-02-26T05:26:42;4.22;;;2.08;;
77573;SDS011;66710;48.868;9.080;2024-02-26T05:29:08;5.72;;;2.15;;
77573;SDS011;66710;48.868;9.080;2024-02-26T05:31:33;3.28;;;2.00;;
77573;SDS011;66710;48.868;9.080;2024-02-26T05:33:59;5.20;;;2.13;;
77573;SDS011;66710;48.868;9.080;2024-02-26T05:36:24;3.90;;;1.92;;
77573;SDS011;66710;48.868;9.080;2024-02-26T05:38:50;3.08;;;1.92;;
77573;SDS011;66710;48.868;9.080;2024-02-26T05:41:16;3.13;;;1.80;;
77573;SDS011;66710;48.868;9.080;2024-02-26T05:43:42;3.88;;;2.00;;
77573;SDS011;66710;48.868;9.080;2024-02-26T05:46:07;3.03;;;1.83;;
77573;SDS011;66710;48.868;9.080;2024-02-26T05:48:33;3.22;;;2.00;;
77573;SDS011;66710;48.868;9.080;2024-02-26T05:50:58;3.70;;;2.00;;
77573;SDS011;66710;48.868;9.080;2024-02-26T05:53:24;4.65;;;2.30;;
77573;SDS011;66710;48.868;9.080;2024-02-26T05:55:49;4.38;;;2.45;;
77573;SDS011;66710;48.868;9.080;2024-02-26T05:58:14;3.65;;;1.98;;
77573;SDS011;66710;48.868;9.080;2024-02-26T06:00:40;6.18;;;2.08;;
77573;SDS011;66710;48.868;9.080;2024-02-26T06:03:05;3.88;;;2.10;;
77573;SDS011;66710;48.868;9.080;2024-02-26T06:05:30;4.55;;;2.33;;
77573;SDS011;66710;48.868;9.080;2024-02-26T06:07:56;4.90;;;2.15;;
77573;SDS011;66710;48.868;9.080;2024-02-26T06:10:21;3.95;;;2.30;;
77573;SDS011;66710;48.868;9.080;2024-02-26T06:12:46;4.40;;;2.20;;
77573;SDS011;66710;48.868;9.080;2024-02-26T06:15:12;4.40;;;2.15;;
77573;SDS011;66710;48.868;9.080;2024-02-26T06:17:37;3.95;;;2.13;;
77573;SDS011;66710;48.868;9.080;2024-02-26T06:20:02;6.43;;;4.30;;
77573;SDS011;66710;48.868;9.080;2024-02-26T06:22:31;6.07;;;2.90;;
77573;SDS011;66710;48.868;9.080;2024-02-26T06:24:56;5.68;;;2.60;;
77573;SDS011;66710;48.868;9.080;2024-02-26T06:27:22;6.00;;;2.83;;
77573;SDS011;66710;48.868;9.080;2024-02-26T06:29:47;5.28;;;2.40;;
77573;SDS011;66710;48.868;9.080;2024-02-26T06:32:13;5.68;;;2.38;;
77573;SDS011;66710;48.868;9.080;2024-02-26T06:34:39;5.07;;;2.35;;
77573;SDS011;66710;48.868;9.080;2024-02-26T06:37:05;4.63;;;2.60;;
77573;SDS011;66710;48.868;9.080;2024-02-26T06:39:31;4.13;;;1.98;;
77573;SDS011;66710;48.868;9.080;2024-02-26T06:41:56;4.57;;;2.20;;
77573;SDS011;66710;48.868;9.080;2024-02-26T06:44:25;3.97;;;2.20;;
77573;SDS011;66710;48.868;9.080;2024-02-26T06:46:51;4.65;;;1.88;;
77573;SDS011;66710;48.868;9.080;2024-02-26T06:49:17;4.35;;;2.08;;
77573;SDS011;66710;48.868;9.080;2024-02-26T06:51:42;4.55;;;2.38;;
77573;SDS011;66710;48.868;9.080;2024-02-26T06:54:07;4.82;;;2.10;;
77573;SDS011;66710;48.868;9.080;2024-02-26T06:56:34;4.40;;;2.30;;
77573;SDS011;66710;48.868;9.080;2024-02-26T06:58:59;5.32;;;3.08;;
77573;SDS011;66710;48.868;9.080;2024-02-26T07:01:25;4.47;;;2.55;;
77573;SDS011;66710;48.868;9.080;2024-02-26T07:03:50;4.78;;;2.45;;
77573;SDS011;66710;48.868;9.080;2024-02-26T07:06:15;4.35;;;2.20;;
77573;SDS011;66710;48.868;9.080;2024-02-26T07:08:40;4.40;;;2.50;;
77573;SDS011;66710;48.868;9.080;2024-02-26T07:11:09;4.28;;;2.30;;
77573;SDS011;66710;48.868;9.080;2024-02-26T07:13:35;4.60;;;2.20;;
77573;SDS011;66710;48.868;9.080;2024-02-26T07:16:00;5.05;;;2.40;;
77573;SDS011;66710;48.868;9.080;2024-02-26T07:18:26;8.23;;;2.58;;
77573;SDS011;66710;48.868;9.080;2024-02-26T07:20:51;4.90;;;2.70;;
77573;SDS011;66710;48.868;9.080;2024-02-26T07:23:16;5.68;;;2.47;;
77573;SDS011;66710;48.868;9.080;2024-02-26T07:25:42;3.92;;;2.20;;
77573;SDS011;66710;48.868;9.080;2024-02-26T07:28:09;4.15;;;2.28;;
77573;SDS011;66710;48.868;9.080;2024-02-26T07:30:34;5.22;;;3.10;;
77573;SDS011;66710;48.868;9.080;2024-02-26T07:33:00;4.30;;;2.38;;
77573;SDS011;66710;48.868;9.080;2024-02-26T07:35:25;4.60;;;2.42;;
77573;SDS011;66710;48.868;9.080;2024-02-26T07:37:52;5.63;;;2.60;;
77573;SDS011;66710;48.868;9.080;2024-02-26T07:40:17;4.95;;;2.45;;
77573;SDS011;66710;48.868;9.080;2024-02-26T07:42:43;5.63;;;2.17;;
77573;SDS011;66710;48.868;9.080;2024-02-26T07:45:09;4.07;;;2.25;;
77573;SDS011;66710;48.868;9.080;2024-02-26T07:47:34;4.50;;;2.58;;
77573;SDS011;66710;48.868;9.080;2024-02-26T07:50:00;5.82;;;2.70;;
77573;SDS011;66710;48.868;9.080;2024-02-26T07:52:26;4.82;;;2.38;;
77573;SDS011;66710;48.868;9.080;2024-02-26T07:54:51;4.63;;;2.20;;
77573;SDS011;66710;48.868;9.080;2024-02-26T07:57:16;4.18;;;2.28;;
77573;SDS011;66710;48.868;9.080;2024-02-26T07:59:42;5.85;;;2.10;;
77573;SDS011;66710;48.868;9.080;2024-02-26T08:02:07;7.13;;;2.42;;
77573;SDS011;66710;48.868;9.080;2024-02-26T08:04:33;3.90;;;2.13;;
77573;SDS011;66710;48.868;9.080;2024-02-26T08:06:58;4.50;;;2.33;;
77573;SDS011;66710;48.868;9.080;2024-02-26T08:09:23;5.05;;;2.22;;
77573;SDS011;66710;48.868;9.080;2024-02-26T08:11:48;5.53;;;2.90;;
77573;SDS011;66710;48.868;9.080;2024-02-26T08:14:14;5.88;;;2.72;;
77573;SDS011;66710;48.868;9.080;2024-02-26T08:16:39;6.63;;;2.50;;
77573;SDS011;66710;48.868;9.080;2024-02-26T08:19:04;9.50;;;3.33;;
77573;SDS011;66710;48.868;9.080;2024-02-26T08:21:30;4.43;;;2.60;;
77573;SDS011;66710;48.868;9.080;2024-02-26T08:23:55;5.97;;;3.00;;
77573;SDS011;66710;48.868;9.080;2024-02-26T08:26:20;6.05;;;3.05;;
77573;SDS011;66710;48.868;9.080;2024-02-26T08:28:47;5.97;;;3.00;;
77573;SDS011;66710;48.868;9.080;2024-02-26T08:31:14;6.70;;;2.90;;
77573;SDS011;66710;48.868;9.080;2024-02-26T08:33:39;6.10;;;3.50;;
77573;SDS011;66710;48.868;9.080;2024-02-26T08:36:05;4.88;;;2.63;;
77573;SDS011;66710;48.868;9.080;2024-02-26T08:38:30;9.32;;;3.60;;
77573;SDS011;66710;48.868;9.080;2024-02-26T08:40:56;6.57;;;3.60;;
77573;SDS011;66710;48.868;9.080;2024-02-26T08:43:21;7.88;;;3.70;;
77573;SDS011;66710;48.868;9.080;2024-02-26T08:45:46;6.22;;;3.28;;
77573;SDS011;66710;48.868;9.080;2024-02-26T08:48:12;8.52;;;3.47;;
77573;SDS011;66710;48.868;9.080;2024-02-26T08:50:37;6.28;;;3.65;;
77573;SDS011;66710;48.868;9.080;2024-02-26T08:53:02;5.35;;;3.40;;
77573;SDS011;66710;48.868;9.080;2024-02-26T08:55:29;7.55;;;4.03;;
77573;SDS011;66710;48.868;9.080;2024-02-26T08:57:54;6.55;;;3.38;;
77573;SDS011;66710;48.868;9.080;2024-02-26T09:00:19;8.52;;;3.53;;
77573;SDS011;66710;48.868;9.080;2024-02-26T09:02:45;7.35;;;3.60;;
77573;SDS011;66710;48.868;9.080;2024-02-26T09:05:12;7.88;;;4.20;;
77573;SDS011;66710;48.868;9.080;2024-02-26T09:07:37;7.72;;;3.72;;
77573;SDS011;66710;48.868;9.080;2024-02-26T09:10:02;7.35;;;3.65;;
77573;SDS011;66710;48.868;9.080;2024-02-26T09:12:28;6.72;;;3.55;;
77573;SDS011;66710;48.868;9.080;2024-02-26T09:14:53;5.45;;;2.67;;
77573;SDS011;66710;48.868;9.080;2024-02-26T09:17:20;6.60;;;3.50;;
77573;SDS011;66710;48.868;9.080;2024-02-26T09:19:45;6.05;;;3.22;;
77573;SDS011;66710;48.868;9.080;2024-02-26T09:22:11;8.20;;;3.22;;
77573;SDS011;66710;48.868;9.080;2024-02-26T09:24:36;5.38;;;2.95;;
77573;SDS011;66710;48.868;9.080;2024-02-26T09:27:01;6.45;;;3.70;;
77573;SDS011;66710;48.868;9.080;2024-02-26T09:29:27;7.28;;;3.13;;
77573;SDS011;66710;48.868;9.080;2024-02-26T09:31:52;7.60;;;4.07;;
77573;SDS011;66710;48.868;9.080;2024-02-26T09:34:17;7.43;;;3.13;;
77573;SDS011;66710;48.868;9.080;2024-02-26T09:36:43;5.88;;;3.13;;
77573;SDS011;66710;48.868;9.080;2024-02-26T09:39:08;8.60;;;3.00;;
77573;SDS011;66710;48.868;9.080;2024-02-26T09:41:36;6.40;;;2.88;;
77573;SDS011;66710;48.868;9.080;2024-02-26T09:44:02;6.65;;;3.20;;
77573;SDS011;66710;48.868;9.080;2024-02-26T09:46:29;5.68;;;3.20;;
77573;SDS011;66710;48.868;9.080;2024-02-26T09:48:55;5.65;;;3.17;;
77573;SDS011;66710;48.868;9.080;2024-02-26T09:51:22;4.60;;;2.75;;
77573;SDS011;66710;48.868;9.080;2024-02-26T09:53:49;5.15;;;2.97;;
77573;SDS011;66710;48.868;9.080;2024-02-26T09:56:16;5.65;;;3.33;;
77573;SDS011;66710;48.868;9.080;2024-02-26T09:58:42;6.32;;;3.20;;
77573;SDS011;66710;48.868;9.080;2024-02-26T10:01:10;5.15;;;3.08;;
77573;SDS011;66710;48.868;9.080;2024-02-26T10:03:39;6.00;;;3.20;;
77573;SDS011;66710;48.868;9.080;2024-02-26T10:06:07;5.10;;;3.05;;
77573;SDS011;66710;48.868;9.080;2024-02-26T10:08:33;6.93;;;3.25;;
77573;SDS011;66710;48.868;9.080;2024-02-26T10:11:00;7.18;;;3.33;;
77573;SDS011;66710;48.868;9.080;2024-02-26T10:13:25;6.97;;;3.25;;
77573;SDS011;66710;48.868;9.080;2024-02-26T10:15:51;6.95;;;3.20;;
77573;SDS011;66710;48.868;9.080;2024-02-26T10:18:16;5.32;;;3.10;;
77573;SDS011;66710;48.868;9.080;2024-02-26T10:20:41;6.15;;;3.30;;
77573;SDS011;66710;48.868;9.080;2024-02-26T10:23:06;5.15;;;2.40;;
77573;SDS011;66710;48.868;9.080;2024-02-26T10:25:32;5.10;;;2.97;;
77573;SDS011;66710;48.868;9.080;2024-02-26T10:28:00;4.80;;;2.50;;
77573;SDS011;66710;48.868;9.080;2024-02-26T10:30:29;4.78;;;3.00;;
77573;SDS011;66710;48.868;9.080;2024-02-26T10:32:55;6.80;;;3.60;;
77573;SDS011;66710;48.868;9.080;2024-02-26T10:35:21;4.90;;;2.70;;
77573;SDS011;66710;48.868;9.080;2024-02-26T10:37:47;5.07;;;2.58;;
77573;SDS011;66710;48.868;9.080;2024-02-26T10:40:14;4.05;;;2.47;;
77573;SDS011;66710;48.868;9.080;2024-02-26T10:42:42;4.22;;;2.40;;
77573;SDS011;66710;48.868;9.080;2024-02-26T10:45:08;5.50;;;2.45;;
77573;SDS011;66710;48.868;9.080;2024-02-26T10:47:35;3.85;;;2.45;;
77573;SDS011;66710;48.868;9.080;2024-02-26T10:50:04;5.28;;;2.38;;
77573;SDS011;66710;48.868;9.080;2024-02-26T10:52:34;4.57;;;2.40;;
77573;SDS011;66710;48.868;9.080;2024-02-26T10:55:01;4.65;;;2.28;;
77573;SDS011;66710;48.868;9.080;2024-02-26T10:57:32;5.57;;;2.30;;
77573;SDS011;66710;48.868;9.080;2024-02-26T11:00:00;2.92;;;1.80;;
77573;SDS011;66710;48.868;9.080;2024-02-26T11:02:29;4.90;;;2.47;;
77573;SDS011;66710;48.868;9.080;2024-02-26T11:04:56;4.45;;;2.30;;
77573;SDS011;66710;48.868;9.080;2024-02-26T11:07:22;5.55;;;2.60;;
77573;SDS011;66710;48.868;9.080;2024-02-26T11:09:48;3.70;;;2.30;;
77573;SDS011;66710;48.868;9.080;2024-02-26T11:12:17;4.35;;;2.40;;
77573;SDS011;66710;48.868;9.080;2024-02-26T11:14:46;5.63;;;3.45;;
77573;SDS011;66710;48.868;9.080;2024-02-26T11:17:12;5.70;;;3.22;;
77573;SDS011;66710;48.868;9.080;2024-02-26T11:19:38;4.55;;;2.65;;
77573;SDS011;66710;48.868;9.080;2024-02-26T11:22:04;6.68;;;3.50;;
77573;SDS011;66710;48.868;9.080;2024-02-26T11:24:29;5.28;;;3.00;;
77573;SDS011;66710;48.868;9.080;2024-02-26T11:26:55;4.15;;;2.60;;
77573;SDS011;66710;48.868;9.080;2024-02-26T11:29:24;3.97;;;2.33;;
77573;SDS011;66710;48.868;9.080;2024-02-26T11:31:52;4.40;;;2.40;;
77573;SDS011;66710;48.868;9.080;2024-02-26T11:34:18;4.18;;;2.85;;
77573;SDS011;66710;48.868;9.080;2024-02-26T11:36:44;4.30;;;2.60;;
77573;SDS011;66710;48.868;9.080;2024-02-26T11:39:13;3.85;;;2.25;;
77573;SDS011;66710;48.868;9.080;2024-02-26T11:41:41;5.43;;;2.35;;
77573;SDS011;66710;48.868;9.080;2024-02-26T11:44:07;3.30;;;2.10;;
77573;SDS011;66710;48.868;9.080;2024-02-26T11:46:33;3.90;;;2.20;;
77573;SDS011;66710;48.868;9.080;2024-02-26T11:51:52;3.97;;;1.65;;
77573;SDS011;66710;48.868;9.080;2024-02-26T11:57:19;2.50;;;1.52;;
77573;SDS011;66710;48.868;9.080;2024-02-26T11:59:45;2.28;;;1.50;;
77573;SDS011;66710;48.868;9.080;2024-02-26T12:02:10;2.85;;;1.60;;
77573;SDS011;66710;48.868;9.080;2024-02-26T12:04:37;3.75;;;1.60;;
77573;SDS011;66710;48.868;9.080;2024-02-26T12:07:03;4.68;;;1.90;;
77573;SDS011;66710;48.868;9.080;2024-02-26T12:09:31;3.75;;;1.92;;
77573;SDS011;66710;48.868;9.080;2024-02-26T12:11:57;2.70;;;1.45;;
77573;SDS011;66710;48.868;9.080;2024-02-26T12:14:25;2.47;;;1.50;;
77573;SDS011;66710;48.868;9.080;2024-02-26T12:16:50;2.65;;;1.67;;
77573;SDS011;66710;48.868;9.080;2024-02-26T12:19:16;2.72;;;1.60;;
77573;SDS011;66710;48.868;9.080;2024-02-26T12:21:42;3.75;;;1.83;;
77573;SDS011;66710;48.868;9.080;2024-02-26T12:24:11;2.40;;;1.40;;
77573;SDS011;66710;48.868;9.080;2024-02-26T12:26:38;2.42;;;1.58;;
77573;SDS011;66710;48.868;9.080;2024-02-26T12:29:03;4.25;;;2.00;;
77573;SDS011;66710;48.868;9.080;2024-02-26T12:31:29;3.85;;;1.50;;
77573;SDS011;66710;48.868;9.080;2024-02-26T12:33:56;2.67;;;1.30;;
77573;SDS011;66710;48.868;9.080;2024-02-26T12:36:21;3.83;;;1.48;;
77573;SDS011;66710;48.868;9.080;2024-02-26T12:38:48;1.80;;;1.23;;
77573;SDS011;66710;48.868;9.080;2024-02-26T12:41:15;2.10;;;1.30;;
77573;SDS011;66710;48.868;9.080;2024-02-26T12:43:41;2.33;;;1.40;;
77573;SDS011;66710;48.868;9.080;2024-02-26T12:46:06;2.17;;;1.40;;
77573;SDS011;66710;48.868;9.080;2024-02-26T12:48:32;2.33;;;1.20;;
77573;SDS011;66710;48.868;9.080;2024-02-26T12:50:57;2.30;;;1.50;;
77573;SDS011;66710;48.868;9.080;2024-02-26T12:53:22;2.42;;;1.50;;
77573;SDS011;66710;48.868;9.080;2024-02-26T12:55:48;2.22;;;1.48;;
77573;SDS011;66710;48.868;9.080;2024-02-26T12:58:13;2.47;;;1.50;;
77573;SDS011;66710;48.868;9.080;2024-02-26T13:00:40;2.53;;;1.30;;
77573;SDS011;66710;48.868;9.080;2024-02-26T13:03:06;2.75;;;1.52;;
77573;SDS011;66710;48.868;9.080;2024-02-26T13:05:31;2.30;;;1.42;;
77573;SDS011;66710;48.868;9.080;2024-02-26T13:07:57;4.30;;;2.00;;
77573;SDS011;66710;48.868;9.080;2024-02-26T13:10:23;5.88;;;2.10;;
77573;SDS011;66710;48.868;9.080;2024-02-26T13:12:50;3.75;;;2.22;;
77573;SDS011;66710;48.868;9.080;2024-02-26T13:15:16;3.22;;;1.70;;
77573;SDS011;66710;48.868;9.080;2024-02-26T13:17:42;2.85;;;1.75;;
77573;SDS011;66710;48.868;9.080;2024-02-26T13:20:12;3.25;;;1.60;;
77573;SDS011;66710;48.868;9.080;2024-02-26T13:22:49;2.92;;;1.60;;
77573;SDS011;66710;48.868;9.080;2024-02-26T13:25:14;3.28;;;1.70;;
77573;SDS011;66710;48.868;9.080;2024-02-26T13:27:45;4.30;;;2.30;;
77573;SDS011;66710;48.868;9.080;2024-02-26T13:30:11;4.00;;;2.33;;
77573;SDS011;66710;48.868;9.080;2024-02-26T13:32:40;3.08;;;1.88;;
77573;SDS011;66710;48.868;9.080;2024-02-26T13:35:10;3.78;;;2.20;;
77573;SDS011;66710;48.868;9.080;2024-02-26T13:37:37;3.38;;;1.50;;
77573;SDS011;66710;48.868;9.080;2024-02-26T13:40:04;1.90;;;1.27;;
77573;SDS011;66710;48.868;9.080;2024-02-26T13:42:34;2.40;;;1.40;;
77573;SDS011;66710;48.868;9.080;2024-02-26T13:44:59;2.35;;;1.40;;
77573;SDS011;66710;48.868;9.080;2024-02-26T13:47:25;3.15;;;1.40;;
77573;SDS011;66710;48.868;9.080;2024-02-26T13:49:50;2.63;;;1.25;;
77573;SDS011;66710;48.868;9.080;2024-02-26T13:52:15;3.72;;;2.00;;
77573;SDS011;66710;48.868;9.080;2024-02-26T13:54:40;2.25;;;1.42;;
77573;SDS011;66710;48.868;9.080;2024-02-26T13:57:06;2.10;;;1.17;;
77573;SDS011;66710;48.868;9.080;2024-02-26T13:59:32;2.60;;;1.63;;
77573;SDS011;66710;48.868;9.080;2024-02-26T14:01:57;4.05;;;2.10;;
77573;SDS011;66710;48.868;9.080;2024-02-26T14:04:23;4.55;;;1.80;;
77573;SDS011;66710;48.868;9.080;2024-02-26T14:06:49;3.17;;;1.23;;
77573;SDS011;66710;48.868;9.080;2024-02-26T14:09:14;4.75;;;2.40;;
77573;SDS011;66710;48.868;9.080;2024-02-26T14:11:44;3.13;;;1.70;;
77573;SDS011;66710;48.868;9.080;2024-02-26T14:14:10;1.63;;;1.10;;
77573;SDS011;66710;48.868;9.080;2024-02-26T14:16:35;2.58;;;1.50;;
77573;SDS011;66710;48.868;9.080;2024-02-26T14:19:01;1.17;;;0.80;;
77573;SDS011;66710;48.868;9.080;2024-02-26T14:21:27;2.25;;;1.40;;
77573;SDS011;66710;48.868;9.080;2024-02-26T14:23:52;2.10;;;1.17;;
77573;SDS011;66710;48.868;9.080;2024-02-26T14:26:17;3.30;;;1.30;;
77573;SDS011;66710;48.868;9.080;2024-02-26T14:28:43;5.32;;;2.70;;
77573;SDS011;66710;48.868;9.080;2024-02-26T14:31:08;10.63;;;5.60;;
77573;SDS011;66710;48.868;9.080;2024-02-26T14:33:37;6.03;;;3.47;;
77573;SDS011;66710;48.868;9.080;2024-02-26T14:36:03;2.88;;;1.33;;
77573;SDS011;66710;48.868;9.080;2024-02-26T14:38:29;4.72;;;2.30;;
77573;SDS011;66710;48.868;9.080;2024-02-26T14:40:54;1.25;;;0.60;;
77573;SDS011;66710;48.868;9.080;2024-02-26T14:43:19;1.27;;;0.70;;
77573;SDS011;66710;48.868;9.080;2024-02-26T14:45:44;2.10;;;1.10;;